SWA2511 KPHX-KSAT
Flight info
| Callsign | SWA2511 |
|---|---|
| Flight time | N/A |
| Altitude | 37000 |
| Route | ECLPS1 PHASE ELP FST MOPPP DNKIN2 |
| Aircraft | B738/M-SDE2E3FGHIRWXY/LB1 |
Departure
| Time | 2026-05-04 17:29 |
|---|---|
| Airport | Phoenix Sky Harbor International Airport (KPHX) |
Arrival
| Time | N/A |
|---|---|
| Airport | San Antonio International Airport (KSAT) |
| Time | Latitude | Longitude | Altitude | Speed | Heading |
|---|---|---|---|---|---|
| 2026-05-04 16:52 | 33.43347 | -111.99693 | 1123 ft | 0 kts | 25° |
| 2026-05-04 17:20 | 33.43309 | -111.99720 | 1120 ft | 4 kts | 39° |
| 2026-05-04 17:20 | 33.43290 | -111.99742 | 1113 ft | 4 kts | 59° |
| 2026-05-04 17:21 | 33.43283 | -111.99766 | 1117 ft | 0 kts | 90° |
| 2026-05-04 17:24 | 33.43283 | -111.99689 | 1121 ft | 8 kts | 90° |
| 2026-05-04 17:25 | 33.43283 | -111.99609 | 1120 ft | 11 kts | 90° |
| 2026-05-04 17:25 | 33.43283 | -111.99394 | 1123 ft | 14 kts | 90° |
| 2026-05-04 17:26 | 33.43203 | -111.99344 | 1117 ft | 0 kts | 180° |
| 2026-05-04 17:27 | 33.43116 | -111.99350 | 1117 ft | 7 kts | 212° |
| 2026-05-04 17:28 | 33.43104 | -112.00062 | 1123 ft | 100 kts | 270° |
| 2026-05-04 17:29 | 33.43097 | -112.03960 | 2105 ft | 189 kts | 265° |
| 2026-05-04 17:29 | 33.42210 | -112.09319 | 3177 ft | 248 kts | 245° |
| 2026-05-04 17:30 | 33.40268 | -112.15502 | 5459 ft | 266 kts | 237° |
| 2026-05-04 17:31 | 33.37369 | -112.17865 | 7302 ft | 258 kts | 189° |
| 2026-05-04 17:31 | 33.31920 | -112.16541 | 9680 ft | 277 kts | 166° |
| 2026-05-04 17:32 | 33.28258 | -112.14589 | 10578 ft | 319 kts | 141° |
| 2026-05-04 17:33 | 33.23689 | -112.08344 | 12309 ft | 352 kts | 115° |
| 2026-05-04 17:33 | 33.22910 | -112.05591 | 12998 ft | 357 kts | 111° |
| 2026-05-04 17:34 | 33.20698 | -111.96875 | 14807 ft | 373 kts | 111° |
| 2026-05-04 17:34 | 33.19934 | -111.93892 | 15417 ft | 377 kts | 111° |
| 2026-05-04 17:35 | 33.17555 | -111.84767 | 17163 ft | 390 kts | 111° |
| 2026-05-04 17:35 | 33.15910 | -111.78519 | 18280 ft | 399 kts | 112° |
| 2026-05-04 17:35 | 33.15070 | -111.75341 | 18743 ft | 404 kts | 112° |
| 2026-05-04 17:36 | 33.14220 | -111.72123 | 19246 ft | 408 kts | 112° |
| 2026-05-04 17:36 | 33.13363 | -111.68882 | 19753 ft | 412 kts | 112° |
| 2026-05-04 17:36 | 33.12494 | -111.65605 | 20265 ft | 416 kts | 112° |
| 2026-05-04 17:36 | 33.11618 | -111.62297 | 20714 ft | 420 kts | 112° |
| 2026-05-04 17:37 | 33.10731 | -111.58952 | 20959 ft | 423 kts | 112° |
| 2026-05-04 17:37 | 33.09846 | -111.55617 | 20953 ft | 423 kts | 112° |
| 2026-05-04 17:37 | 33.08997 | -111.52239 | 20963 ft | 428 kts | 110° |
| 2026-05-04 17:37 | 33.08243 | -111.48824 | 21164 ft | 435 kts | 109° |
| 2026-05-04 17:38 | 33.07506 | -111.45270 | 21696 ft | 437 kts | 108° |
| 2026-05-04 17:38 | 33.06798 | -111.41789 | 22212 ft | 439 kts | 108° |
| 2026-05-04 17:38 | 33.06072 | -111.38239 | 22639 ft | 443 kts | 108° |
| 2026-05-04 17:38 | 33.05329 | -111.34652 | 23023 ft | 448 kts | 108° |
| 2026-05-04 17:39 | 33.03799 | -111.27388 | 23816 ft | 456 kts | 109° |
| 2026-05-04 17:39 | 33.03017 | -111.23712 | 24167 ft | 459 kts | 109° |
| 2026-05-04 17:39 | 33.02225 | -111.20006 | 24504 ft | 463 kts | 109° |
| 2026-05-04 17:40 | 33.01424 | -111.16270 | 24852 ft | 467 kts | 109° |
| 2026-05-04 17:40 | 33.00617 | -111.12513 | 25186 ft | 471 kts | 109° |
| 2026-05-04 17:40 | 32.99799 | -111.08709 | 25514 ft | 475 kts | 109° |
| 2026-05-04 17:40 | 32.99254 | -111.06178 | 25734 ft | 477 kts | 109° |
| 2026-05-04 17:41 | 32.98425 | -111.02329 | 26070 ft | 480 kts | 109° |
| 2026-05-04 17:41 | 32.97591 | -110.98468 | 26387 ft | 483 kts | 109° |
| 2026-05-04 17:41 | 32.96751 | -110.94580 | 26714 ft | 487 kts | 109° |
| 2026-05-04 17:41 | 32.95902 | -110.90660 | 27023 ft | 490 kts | 109° |
| 2026-05-04 17:42 | 32.95047 | -110.86718 | 27307 ft | 493 kts | 109° |
| 2026-05-04 17:42 | 32.94185 | -110.82749 | 27578 ft | 497 kts | 109° |
| 2026-05-04 17:42 | 32.93316 | -110.78757 | 27847 ft | 500 kts | 109° |
| 2026-05-04 17:42 | 32.92440 | -110.74736 | 28144 ft | 502 kts | 109° |
| 2026-05-04 17:43 | 32.91558 | -110.70696 | 28440 ft | 505 kts | 109° |
| 2026-05-04 17:43 | 32.90670 | -110.66633 | 28717 ft | 509 kts | 109° |
| 2026-05-04 17:43 | 32.89775 | -110.62551 | 28990 ft | 512 kts | 109° |
| 2026-05-04 17:43 | 32.88872 | -110.58434 | 29271 ft | 515 kts | 110° |
| 2026-05-04 17:44 | 32.87963 | -110.54305 | 29549 ft | 517 kts | 109° |
| 2026-05-04 17:44 | 32.87048 | -110.50150 | 29775 ft | 521 kts | 109° |
| 2026-05-04 17:44 | 32.86139 | -110.46026 | 29985 ft | 525 kts | 109° |
| 2026-05-04 17:44 | 32.85197 | -110.41760 | 30194 ft | 527 kts | 109° |
| 2026-05-04 17:45 | 32.84277 | -110.37596 | 30439 ft | 529 kts | 109° |
| 2026-05-04 17:45 | 32.83336 | -110.33352 | 30645 ft | 532 kts | 109° |
| 2026-05-04 17:45 | 32.82391 | -110.29096 | 30900 ft | 533 kts | 109° |
| 2026-05-04 17:45 | 32.81441 | -110.24822 | 31130 ft | 535 kts | 109° |
| 2026-05-04 17:46 | 32.80485 | -110.20535 | 31358 ft | 537 kts | 109° |
| 2026-05-04 17:46 | 32.79524 | -110.16227 | 31581 ft | 539 kts | 109° |
| 2026-05-04 17:46 | 32.78557 | -110.11906 | 31780 ft | 542 kts | 109° |
| 2026-05-04 17:46 | 32.77589 | -110.07582 | 32047 ft | 542 kts | 109° |
| 2026-05-04 17:47 | 32.76622 | -110.03265 | 32415 ft | 540 kts | 109° |
| 2026-05-04 17:47 | 32.75655 | -109.98957 | 32775 ft | 538 kts | 110° |
| 2026-05-04 17:47 | 32.74690 | -109.94668 | 33048 ft | 538 kts | 110° |
| 2026-05-04 17:47 | 32.73719 | -109.90367 | 33290 ft | 539 kts | 110° |
| 2026-05-04 17:48 | 32.72747 | -109.86071 | 33531 ft | 539 kts | 110° |
| 2026-05-04 17:48 | 32.71773 | -109.81769 | 33834 ft | 538 kts | 110° |
| 2026-05-04 17:48 | 32.70801 | -109.77479 | 34070 ft | 538 kts | 110° |
| 2026-05-04 17:48 | 32.69825 | -109.73186 | 34257 ft | 539 kts | 110° |
| 2026-05-04 17:49 | 32.68843 | -109.68873 | 34474 ft | 539 kts | 110° |
| 2026-05-04 17:49 | 32.67866 | -109.64584 | 34737 ft | 538 kts | 110° |
| 2026-05-04 17:49 | 32.66888 | -109.60298 | 34992 ft | 537 kts | 110° |
| 2026-05-04 17:49 | 32.65924 | -109.56081 | 35209 ft | 536 kts | 110° |
| 2026-05-04 17:50 | 32.64944 | -109.51806 | 35415 ft | 536 kts | 110° |
| 2026-05-04 17:50 | 32.63964 | -109.47537 | 35628 ft | 536 kts | 110° |
| 2026-05-04 17:50 | 32.62985 | -109.43276 | 35843 ft | 535 kts | 110° |
| 2026-05-04 17:50 | 32.62005 | -109.39020 | 36057 ft | 535 kts | 110° |
| 2026-05-04 17:51 | 32.61024 | -109.34764 | 36246 ft | 534 kts | 110° |
| 2026-05-04 17:51 | 32.60044 | -109.30523 | 36455 ft | 534 kts | 110° |
| 2026-05-04 17:51 | 32.59060 | -109.26274 | 36633 ft | 534 kts | 110° |
| 2026-05-04 17:51 | 32.58077 | -109.22034 | 36841 ft | 531 kts | 110° |
| 2026-05-04 17:52 | 32.56134 | -109.13666 | 36891 ft | 530 kts | 110° |
| 2026-05-04 17:52 | 32.54157 | -109.05202 | 36904 ft | 536 kts | 110° |
| 2026-05-04 17:53 | 32.52154 | -108.96652 | 36953 ft | 540 kts | 110° |
| 2026-05-04 17:53 | 32.50146 | -108.88090 | 36972 ft | 536 kts | 110° |
| 2026-05-04 17:54 | 32.48166 | -108.79658 | 37025 ft | 529 kts | 110° |
| 2026-05-04 17:54 | 32.46181 | -108.71260 | 37066 ft | 529 kts | 110° |
| 2026-05-04 17:55 | 32.44190 | -108.62870 | 37072 ft | 529 kts | 110° |
| 2026-05-04 17:55 | 32.42191 | -108.54470 | 37052 ft | 530 kts | 110° |
| 2026-05-04 17:56 | 32.40199 | -108.46123 | 37013 ft | 531 kts | 110° |
| 2026-05-04 17:56 | 32.38189 | -108.37722 | 36984 ft | 530 kts | 110° |
| 2026-05-04 17:57 | 32.36172 | -108.29321 | 36968 ft | 531 kts | 110° |
| 2026-05-04 17:57 | 32.34145 | -108.20907 | 36958 ft | 531 kts | 110° |
| 2026-05-04 17:58 | 32.32113 | -108.12498 | 36953 ft | 532 kts | 110° |
| 2026-05-04 17:58 | 32.30072 | -108.04078 | 36965 ft | 533 kts | 110° |
| 2026-05-04 17:59 | 32.28034 | -107.95700 | 37011 ft | 533 kts | 110° |
| 2026-05-04 18:00 | 32.24952 | -107.83073 | 37078 ft | 534 kts | 110° |
| 2026-05-04 18:00 | 32.22887 | -107.74648 | 37079 ft | 533 kts | 110° |
| 2026-05-04 18:01 | 32.20816 | -107.66229 | 37081 ft | 533 kts | 110° |
| 2026-05-04 18:01 | 32.18744 | -107.57827 | 37047 ft | 533 kts | 110° |
| 2026-05-04 18:02 | 32.15622 | -107.45221 | 36968 ft | 533 kts | 110° |
| 2026-05-04 18:02 | 32.13538 | -107.36838 | 36916 ft | 532 kts | 110° |
| 2026-05-04 18:03 | 32.11459 | -107.28502 | 36898 ft | 532 kts | 110° |
| 2026-05-04 18:03 | 32.09366 | -107.20135 | 36935 ft | 532 kts | 110° |
| 2026-05-04 18:04 | 32.07265 | -107.11764 | 36957 ft | 532 kts | 110° |
| 2026-05-04 18:05 | 32.04108 | -106.99229 | 36972 ft | 532 kts | 110° |
| 2026-05-04 18:05 | 32.02009 | -106.90929 | 36988 ft | 532 kts | 110° |
| 2026-05-04 18:06 | 31.98825 | -106.78384 | 37056 ft | 533 kts | 110° |
| 2026-05-04 18:06 | 31.96692 | -106.70015 | 37083 ft | 533 kts | 110° |
| 2026-05-04 18:07 | 31.94566 | -106.61696 | 37078 ft | 534 kts | 110° |
| 2026-05-04 18:07 | 31.92421 | -106.53325 | 37047 ft | 534 kts | 110° |
| 2026-05-04 18:08 | 31.90270 | -106.44960 | 37062 ft | 533 kts | 110° |
| 2026-05-04 18:08 | 31.88118 | -106.36612 | 37073 ft | 533 kts | 110° |
| 2026-05-04 18:09 | 31.83795 | -106.19925 | 37028 ft | 533 kts | 110° |
| 2026-05-04 18:10 | 31.81623 | -106.11580 | 36978 ft | 533 kts | 110° |
| 2026-05-04 18:10 | 31.79448 | -106.03247 | 36934 ft | 533 kts | 110° |
| 2026-05-04 18:11 | 31.77282 | -105.94975 | 36885 ft | 533 kts | 110° |
| 2026-05-04 18:11 | 31.75098 | -105.86652 | 36884 ft | 532 kts | 110° |
| 2026-05-04 18:12 | 31.72914 | -105.78357 | 36887 ft | 531 kts | 110° |
| 2026-05-04 18:12 | 31.70726 | -105.70066 | 36882 ft | 531 kts | 110° |
| 2026-05-04 18:13 | 31.68535 | -105.61796 | 36890 ft | 530 kts | 110° |
| 2026-05-04 18:14 | 31.65260 | -105.49476 | 36892 ft | 528 kts | 110° |
| 2026-05-04 18:14 | 31.63062 | -105.41235 | 36896 ft | 528 kts | 110° |
| 2026-05-04 18:15 | 31.58653 | -105.24778 | 36889 ft | 528 kts | 110° |
| 2026-05-04 18:16 | 31.56453 | -105.16603 | 36892 ft | 529 kts | 110° |
| 2026-05-04 18:16 | 31.54231 | -105.08369 | 36891 ft | 530 kts | 110° |
| 2026-05-04 18:17 | 31.50881 | -104.95990 | 36901 ft | 532 kts | 110° |
| 2026-05-04 18:18 | 31.47523 | -104.83644 | 36882 ft | 532 kts | 110° |
| 2026-05-04 18:18 | 31.45267 | -104.75383 | 36891 ft | 532 kts | 110° |
| 2026-05-04 18:19 | 31.41878 | -104.63006 | 36893 ft | 531 kts | 110° |
| 2026-05-04 18:19 | 31.39616 | -104.54775 | 36884 ft | 530 kts | 110° |
| 2026-05-04 18:20 | 31.37368 | -104.46620 | 36897 ft | 529 kts | 110° |
| 2026-05-04 18:20 | 31.35108 | -104.38442 | 36896 ft | 527 kts | 110° |
| 2026-05-04 18:21 | 31.32847 | -104.30281 | 36904 ft | 526 kts | 110° |
| 2026-05-04 18:21 | 31.30586 | -104.22146 | 36893 ft | 526 kts | 110° |
| 2026-05-04 18:22 | 31.28319 | -104.14014 | 36896 ft | 526 kts | 110° |
| 2026-05-04 18:22 | 31.26042 | -104.05866 | 36898 ft | 527 kts | 110° |
| 2026-05-04 18:23 | 31.23772 | -103.97764 | 36894 ft | 528 kts | 110° |
| 2026-05-04 18:23 | 31.21474 | -103.89587 | 36873 ft | 530 kts | 110° |
| 2026-05-04 18:24 | 31.19167 | -103.81396 | 36882 ft | 532 kts | 111° |
| 2026-05-04 18:24 | 31.16844 | -103.73175 | 36900 ft | 533 kts | 111° |
| 2026-05-04 18:25 | 31.14513 | -103.64943 | 36904 ft | 535 kts | 111° |
| 2026-05-04 18:25 | 31.12186 | -103.56751 | 36897 ft | 536 kts | 111° |
| 2026-05-04 18:26 | 31.09831 | -103.48483 | 36887 ft | 536 kts | 111° |
| 2026-05-04 18:26 | 31.07472 | -103.40221 | 36866 ft | 536 kts | 111° |
| 2026-05-04 18:27 | 31.05106 | -103.31960 | 36854 ft | 536 kts | 111° |
| 2026-05-04 18:27 | 31.02736 | -103.23706 | 36885 ft | 535 kts | 111° |
| 2026-05-04 18:28 | 31.00385 | -103.15539 | 36916 ft | 535 kts | 111° |
| 2026-05-04 18:28 | 30.98012 | -103.07317 | 36954 ft | 534 kts | 111° |
| 2026-05-04 18:29 | 30.95641 | -102.99123 | 36991 ft | 533 kts | 111° |
| 2026-05-04 18:29 | 30.93397 | -102.90881 | 36997 ft | 533 kts | 108° |
| 2026-05-04 18:30 | 30.90388 | -102.78456 | 36981 ft | 533 kts | 107° |
| 2026-05-04 18:31 | 30.88355 | -102.70155 | 36945 ft | 533 kts | 108° |
| 2026-05-04 18:31 | 30.86286 | -102.61876 | 36906 ft | 533 kts | 108° |
| 2026-05-04 18:32 | 30.84196 | -102.53589 | 36873 ft | 533 kts | 108° |
| 2026-05-04 18:32 | 30.82114 | -102.45356 | 36855 ft | 533 kts | 108° |
| 2026-05-04 18:33 | 30.80017 | -102.37076 | 36874 ft | 534 kts | 108° |
| 2026-05-04 18:33 | 30.78268 | -102.30184 | 36871 ft | 534 kts | 108° |
| 2026-05-04 18:34 | 30.76157 | -102.21890 | 36881 ft | 535 kts | 108° |
| 2026-05-04 18:34 | 30.74038 | -102.13585 | 36880 ft | 535 kts | 108° |
| 2026-05-04 18:35 | 30.71916 | -102.05297 | 36896 ft | 536 kts | 108° |
| 2026-05-04 18:35 | 30.69784 | -101.96995 | 36902 ft | 536 kts | 108° |
| 2026-05-04 18:36 | 30.67660 | -101.88744 | 36911 ft | 536 kts | 108° |
| 2026-05-04 18:36 | 30.65520 | -101.80456 | 36912 ft | 536 kts | 108° |
| 2026-05-04 18:37 | 30.63374 | -101.72171 | 36917 ft | 535 kts | 108° |
| 2026-05-04 18:37 | 30.61228 | -101.63908 | 36920 ft | 534 kts | 108° |
| 2026-05-04 18:38 | 30.59080 | -101.55663 | 36939 ft | 533 kts | 108° |
| 2026-05-04 18:38 | 30.56928 | -101.47423 | 36949 ft | 531 kts | 108° |
| 2026-05-04 18:38 | 30.55872 | -101.43384 | 36922 ft | 517 kts | 108° |
| 2026-05-04 18:39 | 30.54837 | -101.39431 | 36945 ft | 505 kts | 108° |
| 2026-05-04 18:39 | 30.52802 | -101.31688 | 36992 ft | 503 kts | 108° |
| 2026-05-04 18:40 | 30.50737 | -101.23853 | 36994 ft | 512 kts | 108° |
| 2026-05-04 18:40 | 30.48657 | -101.15980 | 36976 ft | 516 kts | 108° |
| 2026-05-04 18:41 | 30.46545 | -101.08005 | 36967 ft | 518 kts | 108° |
| 2026-05-04 18:41 | 30.44427 | -101.00025 | 36945 ft | 518 kts | 108° |
| 2026-05-04 18:42 | 30.42304 | -100.92052 | 36959 ft | 516 kts | 108° |
| 2026-05-04 18:42 | 30.40188 | -100.84127 | 36976 ft | 514 kts | 108° |
| 2026-05-04 18:43 | 30.38076 | -100.76236 | 36975 ft | 511 kts | 108° |
| 2026-05-04 18:43 | 30.35971 | -100.68394 | 36967 ft | 508 kts | 108° |
| 2026-05-04 18:44 | 30.33884 | -100.60637 | 36965 ft | 506 kts | 108° |
| 2026-05-04 18:44 | 30.31790 | -100.52878 | 36951 ft | 504 kts | 108° |
| 2026-05-04 18:45 | 30.29698 | -100.45144 | 36932 ft | 503 kts | 108° |
| 2026-05-04 18:45 | 30.27603 | -100.37418 | 36923 ft | 503 kts | 108° |
| 2026-05-04 18:46 | 30.25500 | -100.29686 | 36942 ft | 504 kts | 108° |
| 2026-05-04 18:46 | 30.23379 | -100.21906 | 36505 ft | 516 kts | 108° |
| 2026-05-04 18:46 | 30.22663 | -100.19283 | 36049 ft | 519 kts | 108° |